createdAt,value
2019-05-18T00:01:55.275Z,8.50
2019-05-18T00:04:24.220Z,8.50
2019-05-18T00:06:52.879Z,8.60
2019-05-18T00:09:21.522Z,8.60
2019-05-18T00:11:51.187Z,8.70
2019-05-18T00:14:19.837Z,8.60
2019-05-18T00:16:48.472Z,8.60
2019-05-18T00:19:18.785Z,8.60
2019-05-18T00:21:48.907Z,8.60
2019-05-18T00:24:18.902Z,8.60
2019-05-18T00:26:47.585Z,8.60
2019-05-18T00:29:16.299Z,8.60
2019-05-18T00:31:48.371Z,8.60
2019-05-18T00:34:29.751Z,8.60
2019-05-18T00:36:52.005Z,8.50
2019-05-18T00:39:20.728Z,8.50
2019-05-18T00:41:49.471Z,8.50
2019-05-18T00:44:18.118Z,8.40
2019-05-18T00:46:46.853Z,8.30
2019-05-18T00:49:15.516Z,8.20
2019-05-18T00:51:44.246Z,8.20
2019-05-18T00:54:12.891Z,8.10
2019-05-18T00:56:47.327Z,8.10
2019-05-18T00:59:16.411Z,8.10
2019-05-18T01:01:45.334Z,8.00
2019-05-18T01:04:14.269Z,8.00
2019-05-18T01:06:43.235Z,8.00
2019-05-18T01:09:19.476Z,8.00
2019-05-18T01:11:47.501Z,8.00
2019-05-18T01:14:17.171Z,7.90
2019-05-18T01:16:45.857Z,8.00
2019-05-18T01:19:14.561Z,8.00
2019-05-18T01:21:43.204Z,7.90
2019-05-18T01:24:12.494Z,7.80
2019-05-18T01:26:42.817Z,7.80
2019-05-18T01:29:11.536Z,7.70
2019-05-18T01:31:40.259Z,7.70
2019-05-18T01:34:08.929Z,7.70
2019-05-18T01:36:37.859Z,7.60
2019-05-18T01:39:07.871Z,7.60
2019-05-18T01:41:36.801Z,7.50
2019-05-18T01:44:07.559Z,7.50
2019-05-18T01:46:36.368Z,7.40
2019-05-18T01:49:05.087Z,7.40
2019-05-18T01:51:33.901Z,7.50
2019-05-18T01:54:02.547Z,7.50
2019-05-18T01:56:31.142Z,7.50
2019-05-18T01:59:00.083Z,7.50
2019-05-18T02:01:29.393Z,7.50
2019-05-18T02:03:58.143Z,7.40
2019-05-18T02:06:26.881Z,7.40
2019-05-18T02:08:55.515Z,7.40
2019-05-18T02:11:24.182Z,7.30
2019-05-18T02:13:52.915Z,7.20
2019-05-18T02:16:21.647Z,7.10
2019-05-18T02:18:51.082Z,7.10
2019-05-18T02:21:19.733Z,7.10
2019-05-18T02:23:48.362Z,7.20
2019-05-18T02:26:16.960Z,7.20
2019-05-18T02:28:46.402Z,7.20
2019-05-18T02:31:15.765Z,7.10
2019-05-18T02:33:44.431Z,7.10
2019-05-18T02:36:13.134Z,7.10
2019-05-18T02:38:41.774Z,7.00
2019-05-18T02:41:13.155Z,7.00
2019-05-18T02:43:44.417Z,7.00
2019-05-18T02:46:12.804Z,7.00
2019-05-18T02:48:49.699Z,7.00
2019-05-18T02:51:12.289Z,7.00
2019-05-18T02:53:41.005Z,7.00
2019-05-18T02:56:09.769Z,6.90
2019-05-18T02:58:41.243Z,6.90
2019-05-18T03:01:09.930Z,6.90
2019-05-18T03:03:39.213Z,6.80
2019-05-18T03:06:08.743Z,6.80
2019-05-18T03:08:37.549Z,6.70
2019-05-18T03:11:09.207Z,6.70
2019-05-18T03:13:38.227Z,6.60
2019-05-18T03:16:06.897Z,6.70
2019-05-18T03:18:35.705Z,6.70
2019-05-18T03:21:04.437Z,6.80
2019-05-18T03:23:34.542Z,6.80
2019-05-18T03:26:04.547Z,6.90
2019-05-18T03:28:33.188Z,6.90
2019-05-18T03:31:02.067Z,6.90
2019-05-18T03:33:31.109Z,7.00
2019-05-18T03:35:59.975Z,7.10
2019-05-18T03:38:28.633Z,7.10
2019-05-18T03:40:57.743Z,7.10
2019-05-18T03:43:26.452Z,7.10
2019-05-18T03:45:55.555Z,7.10
2019-05-18T03:48:24.229Z,7.10
2019-05-18T03:50:54.415Z,7.20
2019-05-18T03:53:23.124Z,7.10
2019-05-18T03:55:51.713Z,7.00
2019-05-18T03:58:20.440Z,7.00
2019-05-18T04:00:49.267Z,6.90
2019-05-18T04:03:17.801Z,7.00
2019-05-18T04:05:47.640Z,7.10
2019-05-18T04:08:16.268Z,7.20
2019-05-18T04:10:45.019Z,7.30
2019-05-18T04:13:15.236Z,7.30
2019-05-18T04:15:43.869Z,7.40
2019-05-18T04:18:12.550Z,7.50
2019-05-18T04:20:41.283Z,7.60
2019-05-18T04:23:10.280Z,7.80
2019-05-18T04:25:43.757Z,8.00
2019-05-18T04:28:11.347Z,8.20
2019-05-18T04:30:43.365Z,8.50
2019-05-18T04:33:10.377Z,9.00
2019-05-18T04:35:39.495Z,9.40
2019-05-18T04:38:08.127Z,9.90
2019-05-18T04:40:38.006Z,10.30
2019-05-18T04:43:06.641Z,10.40
2019-05-18T04:45:37.130Z,10.50
2019-05-18T04:48:06.084Z,10.70
2019-05-18T04:50:34.730Z,10.90
2019-05-18T04:53:03.442Z,11.00
2019-05-18T04:55:32.067Z,11.20
2019-05-18T04:58:00.801Z,11.30
2019-05-18T05:00:32.423Z,11.70
2019-05-18T05:03:01.107Z,11.90
2019-05-18T05:05:29.674Z,12.10
2019-05-18T05:07:58.407Z,12.30
2019-05-18T05:10:27.369Z,12.40
2019-05-18T05:12:55.948Z,12.60
2019-05-18T05:15:24.665Z,13.00
2019-05-18T05:17:53.340Z,13.50
2019-05-18T05:20:23.703Z,14.20
2019-05-18T05:22:53.089Z,15.10
2019-05-18T05:25:25.934Z,15.50
2019-05-18T05:27:57.412Z,16.00
2019-05-18T05:30:29.301Z,16.30
2019-05-18T05:32:58.311Z,16.80
2019-05-18T05:35:27.294Z,17.10
2019-05-18T05:38:05.079Z,17.30
2019-05-18T05:40:37.148Z,17.60
2019-05-18T05:43:07.404Z,18.20
2019-05-18T05:45:37.627Z,18.60
2019-05-18T05:48:09.753Z,19.10
2019-05-18T05:50:38.465Z,19.30
2019-05-18T05:53:07.069Z,19.50
2019-05-18T05:55:35.712Z,19.80
2019-05-18T05:58:04.737Z,19.10
2019-05-18T06:00:33.610Z,18.90
2019-05-18T06:03:05.360Z,19.20
2019-05-18T06:05:34.353Z,18.90
2019-05-18T06:08:06.488Z,18.60
2019-05-18T06:10:36.825Z,18.10
2019-05-18T06:13:05.462Z,18.30
2019-05-18T06:15:34.324Z,18.50
2019-05-18T06:18:03.183Z,19.50
2019-05-18T06:20:31.893Z,19.70
2019-05-18T06:23:00.586Z,19.80
2019-05-18T06:25:34.056Z,20.10
2019-05-18T06:28:01.877Z,20.20
2019-05-18T06:30:33.365Z,20.30
2019-05-18T06:33:02.013Z,20.10
2019-05-18T06:35:32.328Z,20.40
2019-05-18T06:38:01.003Z,20.90
2019-05-18T06:40:29.942Z,21.10
2019-05-18T06:43:00.879Z,20.50
2019-05-18T06:45:30.429Z,20.60
2019-05-18T06:48:00.852Z,21.10
2019-05-18T06:50:30.850Z,22.10
2019-05-18T06:53:01.460Z,21.90
2019-05-18T06:55:30.194Z,22.00
2019-05-18T06:58:06.286Z,21.80
2019-05-18T07:00:42.638Z,21.90
2019-05-18T07:03:11.400Z,22.30
2019-05-18T07:05:40.297Z,21.90
2019-05-18T07:08:11.045Z,22.00
2019-05-18T07:10:39.722Z,21.50
2019-05-18T07:13:08.452Z,21.70
2019-05-18T07:15:37.371Z,22.00
2019-05-18T07:18:06.122Z,21.80
2019-05-18T07:20:34.822Z,21.70
2019-05-18T07:23:04.945Z,21.00
2019-05-18T07:25:33.658Z,21.40
2019-05-18T07:28:04.242Z,21.10
2019-05-18T07:30:32.932Z,21.00
2019-05-18T07:33:01.694Z,20.70
2019-05-18T07:35:30.581Z,20.30
2019-05-18T07:37:59.506Z,20.60
2019-05-18T07:40:37.409Z,20.10
2019-05-18T07:43:06.209Z,20.30
2019-05-18T07:45:35.252Z,20.10
2019-05-18T07:48:06.568Z,20.10
2019-05-18T07:50:36.234Z,19.80
2019-05-18T07:53:05.000Z,19.50
2019-05-18T07:55:33.756Z,19.70
2019-05-18T07:58:02.426Z,20.10
2019-05-18T08:00:31.414Z,19.90
2019-05-18T08:03:00.086Z,19.30
2019-05-18T08:05:31.631Z,19.30
2019-05-18T08:08:00.273Z,19.50
2019-05-18T08:10:37.017Z,19.20
2019-05-18T08:13:07.683Z,18.60
2019-05-18T08:15:39.474Z,18.20
2019-05-18T08:18:11.679Z,18.20
2019-05-18T08:20:40.399Z,18.70
2019-05-18T08:23:09.420Z,19.50
2019-05-18T08:25:38.668Z,20.00
2019-05-18T08:28:07.409Z,21.00
2019-05-18T08:30:46.870Z,21.60
2019-05-18T08:33:22.097Z,21.30
2019-05-18T08:35:55.213Z,22.40
2019-05-18T08:38:25.832Z,23.50
2019-05-18T08:41:04.582Z,23.70
2019-05-18T08:43:35.030Z,23.90
2019-05-18T08:46:04.004Z,24.40
2019-05-18T08:48:34.351Z,24.40
2019-05-18T08:51:04.827Z,24.00
2019-05-18T08:53:33.721Z,23.20
2019-05-18T08:56:02.441Z,23.00
2019-05-18T08:58:34.979Z,23.50
2019-05-18T09:01:03.881Z,23.10
2019-05-18T09:03:34.366Z,23.60
2019-05-18T09:06:05.878Z,24.80
2019-05-18T09:08:36.085Z,25.20
2019-05-18T09:11:06.471Z,25.40
2019-05-18T09:13:35.331Z,26.00
2019-05-18T09:16:07.981Z,25.70
2019-05-18T09:18:39.760Z,26.20
2019-05-18T09:21:10.213Z,26.40
2019-05-18T09:23:42.546Z,26.30
2019-05-18T09:26:11.169Z,26.30
2019-05-18T09:28:45.757Z,26.20
2019-05-18T09:31:14.501Z,25.60
2019-05-18T09:33:49.146Z,25.00
2019-05-18T09:36:16.971Z,24.50
2019-05-18T09:39:00.068Z,25.10
2019-05-18T09:41:24.883Z,24.90
2019-05-18T09:43:54.972Z,25.20
2019-05-18T09:46:27.777Z,25.40
2019-05-18T09:49:00.952Z,25.90
2019-05-18T09:51:32.659Z,25.80
2019-05-18T09:54:02.343Z,25.60
2019-05-18T09:56:31.804Z,25.70
2019-05-18T09:59:01.164Z,26.00
2019-05-18T10:01:30.103Z,26.10
2019-05-18T10:04:01.183Z,26.20
2019-05-18T10:06:32.339Z,25.70
2019-05-18T10:09:01.237Z,25.50
2019-05-18T10:11:37.940Z,26.20
2019-05-18T10:14:05.321Z,27.10
2019-05-18T10:16:35.403Z,26.10
2019-05-18T10:19:04.068Z,26.80
2019-05-18T10:21:34.283Z,27.10
2019-05-18T10:24:06.158Z,28.20
2019-05-18T10:26:34.831Z,28.80
2019-05-18T10:29:07.875Z,28.60
2019-05-18T10:31:36.889Z,28.70
2019-05-18T10:34:08.332Z,28.90
2019-05-18T10:36:38.641Z,28.60
2019-05-18T10:39:08.366Z,29.00
2019-05-18T10:41:39.877Z,28.70
2019-05-18T10:44:08.537Z,28.90
2019-05-18T10:46:37.271Z,29.50
2019-05-18T10:49:05.940Z,30.40
2019-05-18T10:51:40.561Z,30.30
2019-05-18T10:54:10.281Z,30.50
2019-05-18T10:56:42.330Z,29.60
2019-05-18T10:59:11.292Z,29.40
2019-05-18T11:01:43.913Z,28.70
2019-05-18T11:04:12.860Z,28.80
2019-05-18T11:06:44.515Z,27.90
2019-05-18T11:09:13.239Z,27.80
2019-05-18T11:11:48.737Z,27.20
2019-05-18T11:14:19.076Z,26.10
2019-05-18T11:16:48.930Z,25.70
2019-05-18T11:19:20.490Z,24.30
2019-05-18T11:21:53.807Z,25.00
2019-05-18T11:24:25.904Z,25.60
2019-05-18T11:26:54.628Z,26.50
2019-05-18T11:29:31.026Z,27.20
2019-05-18T11:32:00.160Z,27.60
2019-05-18T11:34:28.896Z,28.00
2019-05-18T11:36:57.603Z,28.20
2019-05-18T11:39:26.336Z,28.20
2019-05-18T11:41:55.636Z,28.30
2019-05-18T11:44:26.703Z,28.30
2019-05-18T11:46:56.083Z,27.70
2019-05-18T11:49:29.167Z,25.80
2019-05-18T11:51:58.274Z,25.10
2019-05-18T11:54:28.530Z,24.40
2019-05-18T11:56:57.291Z,24.00
2019-05-18T11:59:26.257Z,23.70
2019-05-18T12:02:04.542Z,23.70
2019-05-18T12:04:33.581Z,24.00
2019-05-18T12:07:02.173Z,24.10
2019-05-18T12:09:34.029Z,24.40
2019-05-18T12:12:07.177Z,24.90
2019-05-18T12:14:36.232Z,25.00
2019-05-18T12:17:05.032Z,25.20
2019-05-18T12:19:36.830Z,25.50
2019-05-18T12:22:07.490Z,25.60
2019-05-18T12:24:36.224Z,25.40
2019-05-18T12:27:05.292Z,25.60
2019-05-18T12:29:35.097Z,26.00
2019-05-18T12:32:06.174Z,26.00
2019-05-18T12:34:34.778Z,26.00
2019-05-18T12:37:03.726Z,25.80
2019-05-18T12:39:34.006Z,25.60
2019-05-18T12:42:07.485Z,24.80
2019-05-18T12:44:35.406Z,24.10
2019-05-18T12:47:14.168Z,23.50
2019-05-18T12:49:45.292Z,22.90
2019-05-18T12:52:14.294Z,22.90
2019-05-18T12:54:46.385Z,22.50
2019-05-18T12:57:13.694Z,22.70
2019-05-18T12:59:42.549Z,23.30
2019-05-18T13:02:11.372Z,23.70
2019-05-18T13:04:42.026Z,24.00
2019-05-18T13:07:13.599Z,24.30
2019-05-18T13:09:44.243Z,24.40
2019-05-18T13:12:14.347Z,24.60
2019-05-18T13:14:43.320Z,24.50
2019-05-18T13:17:13.331Z,24.20
2019-05-18T13:19:43.365Z,24.50
2019-05-18T13:22:13.720Z,24.60
2019-05-18T13:24:45.614Z,24.70
2019-05-18T13:27:17.259Z,24.90
2019-05-18T13:29:52.160Z,25.00
2019-05-18T13:32:20.866Z,24.70
2019-05-18T13:34:49.794Z,24.50
2019-05-18T13:37:18.844Z,24.40
2019-05-18T13:39:47.441Z,24.30
2019-05-18T13:42:20.497Z,24.20
2019-05-18T13:44:50.698Z,23.90
2019-05-18T13:47:30.187Z,23.20
2019-05-18T13:50:01.901Z,22.90
2019-05-18T13:52:31.291Z,22.90
2019-05-18T13:55:05.171Z,23.20
2019-05-18T13:57:37.205Z,23.40
2019-05-18T14:00:07.230Z,23.20
2019-05-18T14:03:00.655Z,23.50
2019-05-18T14:05:29.772Z,23.60
2019-05-18T14:08:00.105Z,23.90
2019-05-18T14:10:32.950Z,24.20
2019-05-18T14:13:06.113Z,24.20
2019-05-18T14:15:39.036Z,23.90
2019-05-18T14:18:13.218Z,23.80
2019-05-18T14:20:55.315Z,23.10
2019-05-18T14:23:24.131Z,22.60
2019-05-18T14:25:52.789Z,22.80
2019-05-18T14:28:25.225Z,23.00
2019-05-18T14:30:57.241Z,22.70
2019-05-18T14:33:25.946Z,22.30
2019-05-18T14:35:59.830Z,22.00
2019-05-18T14:38:31.809Z,22.00
2019-05-18T14:41:00.726Z,21.60
2019-05-18T14:43:32.613Z,21.60
2019-05-18T14:46:01.298Z,21.90
2019-05-18T14:48:41.329Z,22.30
2019-05-18T14:51:10.566Z,22.70
2019-05-18T14:53:42.678Z,22.70
2019-05-18T14:56:18.586Z,22.80
2019-05-18T14:58:47.330Z,22.50
2019-05-18T15:01:22.498Z,22.20
2019-05-18T15:03:51.504Z,21.90
2019-05-18T15:06:32.828Z,21.70
2019-05-18T15:09:01.504Z,21.80
2019-05-18T15:11:41.008Z,22.00
2019-05-18T15:14:12.633Z,22.10
2019-05-18T15:16:42.214Z,22.20
2019-05-18T15:19:18.925Z,22.20
2019-05-18T15:21:49.171Z,22.00
2019-05-18T15:24:18.289Z,21.70
2019-05-18T15:26:48.297Z,21.70
2019-05-18T15:29:18.582Z,21.80
2019-05-18T15:31:49.219Z,22.00
2019-05-18T15:34:23.742Z,22.10
2019-05-18T15:36:48.331Z,22.10
2019-05-18T15:39:27.352Z,22.10
2019-05-18T15:42:00.126Z,22.10
2019-05-18T15:44:27.843Z,22.00
2019-05-18T15:47:00.173Z,21.80
2019-05-18T15:49:30.361Z,21.70
2019-05-18T15:51:59.069Z,21.70
2019-05-18T15:54:27.787Z,21.70
2019-05-18T15:56:57.540Z,21.50
2019-05-18T15:59:26.271Z,21.50
2019-05-18T16:01:56.509Z,21.50
2019-05-18T16:04:29.668Z,21.40
2019-05-18T16:07:04.172Z,21.50
2019-05-18T16:09:32.896Z,21.50
2019-05-18T16:12:03.091Z,21.60
2019-05-18T16:14:33.851Z,21.60
2019-05-18T16:17:06.246Z,21.60
2019-05-18T16:19:36.593Z,21.60
2019-05-18T16:22:08.433Z,21.60
2019-05-18T16:24:45.763Z,21.50
2019-05-18T16:27:14.740Z,21.40
2019-05-18T16:29:47.849Z,21.20
2019-05-18T16:32:19.273Z,21.20
2019-05-18T16:34:50.103Z,21.20
2019-05-18T16:37:21.751Z,21.20
2019-05-18T16:39:53.788Z,21.20
2019-05-18T16:42:22.464Z,21.10
2019-05-18T16:44:51.382Z,21.00
2019-05-18T16:47:23.111Z,20.90
2019-05-18T16:49:51.832Z,20.90
2019-05-18T16:52:20.470Z,20.90
2019-05-18T16:54:50.194Z,20.80
2019-05-18T16:57:18.793Z,20.70
2019-05-18T16:59:50.693Z,20.70
2019-05-18T17:02:31.218Z,20.70
2019-05-18T17:04:53.175Z,20.70
2019-05-18T17:07:24.302Z,20.60
2019-05-18T17:09:53.266Z,20.50
2019-05-18T17:12:22.437Z,20.40
2019-05-18T17:14:55.290Z,20.30
2019-05-18T17:17:27.029Z,20.30
2019-05-18T17:19:57.206Z,20.30
2019-05-18T17:22:30.831Z,20.30
2019-05-18T17:24:59.454Z,20.20
2019-05-18T17:27:32.251Z,20.20
2019-05-18T17:30:01.008Z,20.10
2019-05-18T17:32:31.270Z,20.10
2019-05-18T17:35:03.830Z,20.00
2019-05-18T17:37:34.677Z,20.00
2019-05-18T17:40:06.428Z,20.00
2019-05-18T17:42:35.383Z,19.90
2019-05-18T17:45:08.402Z,19.80
2019-05-18T17:47:39.548Z,19.70
2019-05-18T17:50:10.597Z,19.70
2019-05-18T17:52:42.384Z,19.50
2019-05-18T17:55:11.815Z,19.50
2019-05-18T17:57:40.690Z,19.40
2019-05-18T18:00:11.093Z,19.40
2019-05-18T18:02:40.287Z,19.30
2019-05-18T18:05:17.677Z,19.20
2019-05-18T18:07:46.710Z,19.20
2019-05-18T18:10:20.581Z,19.10
2019-05-18T18:12:52.092Z,19.10
2019-05-18T18:15:23.220Z,19.00
2019-05-18T18:18:04.139Z,18.90
2019-05-18T18:20:34.327Z,18.90
2019-05-18T18:23:07.769Z,18.80
2019-05-18T18:25:38.238Z,18.70
2019-05-18T18:28:07.089Z,18.70
2019-05-18T18:30:40.421Z,18.60
2019-05-18T18:33:09.267Z,18.50
2019-05-18T18:35:39.649Z,18.40
2019-05-18T18:38:08.429Z,18.30
2019-05-18T18:40:40.012Z,18.20
2019-05-18T18:43:08.864Z,18.20
2019-05-18T18:45:39.047Z,18.10
2019-05-18T18:48:07.778Z,18.10
2019-05-18T18:50:36.629Z,18.00
2019-05-18T18:53:09.887Z,17.90
2019-05-18T18:55:38.711Z,17.80
2019-05-18T18:58:07.735Z,17.70
2019-05-18T19:00:39.835Z,17.60
2019-05-18T19:03:08.824Z,17.60
2019-05-18T19:05:37.529Z,17.60
2019-05-18T19:08:07.434Z,17.50
2019-05-18T19:10:39.430Z,17.50
2019-05-18T19:13:12.482Z,17.40
2019-05-18T19:15:44.481Z,17.30
2019-05-18T19:18:16.349Z,17.30
2019-05-18T19:20:47.060Z,17.20
2019-05-18T19:23:16.306Z,17.10
2019-05-18T19:25:45.203Z,17.10
2019-05-18T19:28:15.321Z,17.00
2019-05-18T19:30:44.022Z,16.90
2019-05-18T19:33:12.642Z,16.90
2019-05-18T19:35:41.351Z,16.80
2019-05-18T19:38:10.145Z,16.80
2019-05-18T19:40:39.362Z,16.70
2019-05-18T19:43:08.029Z,16.60
2019-05-18T19:45:36.975Z,16.50
2019-05-18T19:48:08.710Z,16.50
2019-05-18T19:50:43.937Z,16.50
2019-05-18T19:53:15.311Z,16.40
2019-05-18T19:55:51.098Z,16.30
2019-05-18T19:58:20.641Z,16.30
2019-05-18T20:01:01.923Z,16.20
2019-05-18T20:03:40.236Z,16.20
2019-05-18T20:06:09.033Z,16.10
2019-05-18T20:08:42.317Z,16.00
2019-05-18T20:11:12.847Z,16.00
2019-05-18T20:13:44.193Z,15.90
2019-05-18T20:16:12.999Z,15.80
2019-05-18T20:18:46.847Z,15.80
2019-05-18T20:21:19.096Z,15.70
2019-05-18T20:23:51.232Z,15.70
2019-05-18T20:26:22.396Z,15.50
2019-05-18T20:28:56.232Z,15.50
2019-05-18T20:31:29.727Z,15.40
2019-05-18T20:34:01.263Z,15.30
2019-05-18T20:36:30.469Z,15.30
2019-05-18T20:39:04.686Z,15.40
2019-05-18T20:41:33.395Z,15.40
2019-05-18T20:44:02.182Z,15.30
2019-05-18T20:46:30.819Z,15.20
2019-05-18T20:48:59.540Z,15.20
2019-05-18T20:51:32.551Z,15.10
2019-05-18T20:54:04.171Z,15.10
2019-05-18T20:56:36.563Z,15.10
2019-05-18T20:59:09.160Z,15.00
2019-05-18T21:01:37.894Z,14.70
2019-05-18T21:04:12.617Z,14.50
2019-05-18T21:06:45.635Z,14.30
2019-05-18T21:09:17.339Z,14.20
2019-05-18T21:11:48.901Z,14.00
2019-05-18T21:14:17.614Z,13.90
2019-05-18T21:16:46.859Z,13.70
2019-05-18T21:19:20.097Z,13.70
2019-05-18T21:21:53.064Z,13.70
2019-05-18T21:24:24.646Z,13.70
2019-05-18T21:26:55.241Z,13.80
2019-05-18T21:29:28.417Z,13.80
2019-05-18T21:32:04.218Z,13.70
2019-05-18T21:34:36.204Z,13.60
2019-05-18T21:37:06.314Z,13.60
2019-05-18T21:39:35.628Z,13.60
2019-05-18T21:42:04.425Z,13.60
2019-05-18T21:44:34.603Z,13.70
2019-05-18T21:47:04.413Z,13.60
2019-05-18T21:49:33.031Z,13.60
2019-05-18T21:52:03.161Z,13.60
2019-05-18T21:54:33.768Z,13.60
2019-05-18T21:57:05.294Z,13.50
2019-05-18T21:59:35.822Z,13.50
2019-05-18T22:02:06.060Z,13.50
2019-05-18T22:04:36.563Z,13.50
2019-05-18T22:07:11.387Z,13.50
2019-05-18T22:09:40.240Z,13.60
2019-05-18T22:12:09.646Z,13.70
2019-05-18T22:14:38.291Z,13.80
2019-05-18T22:17:07.159Z,13.80
2019-05-18T22:19:35.875Z,13.80
2019-05-18T22:22:04.905Z,13.90
2019-05-18T22:24:37.861Z,13.80
2019-05-18T22:27:06.593Z,13.70
2019-05-18T22:29:36.096Z,13.60
2019-05-18T22:32:06.935Z,13.60
2019-05-18T22:34:35.683Z,13.70
2019-05-18T22:37:04.690Z,13.70
2019-05-18T22:39:35.443Z,13.60
2019-05-18T22:42:05.745Z,13.60
2019-05-18T22:44:34.376Z,13.60
2019-05-18T22:47:03.316Z,13.50
2019-05-18T22:49:32.250Z,13.50
2019-05-18T22:52:00.985Z,13.50
2019-05-18T22:54:29.848Z,13.50
2019-05-18T22:56:59.921Z,13.40
2019-05-18T22:59:28.507Z,13.40
2019-05-18T23:01:57.249Z,13.40
2019-05-18T23:04:27.638Z,13.40
2019-05-18T23:06:56.217Z,13.40
2019-05-18T23:09:26.334Z,13.40
2019-05-18T23:12:01.657Z,13.40
2019-05-18T23:14:30.237Z,13.40
2019-05-18T23:16:59.147Z,13.40
2019-05-18T23:19:30.877Z,13.30
2019-05-18T23:21:59.679Z,13.20
2019-05-18T23:24:28.389Z,13.20
2019-05-18T23:26:57.067Z,13.20
2019-05-18T23:29:31.205Z,13.20
2019-05-18T23:32:02.311Z,13.10
2019-05-18T23:34:34.099Z,13.10
2019-05-18T23:37:02.997Z,13.10
2019-05-18T23:39:32.291Z,13.10
2019-05-18T23:42:00.923Z,13.10
2019-05-18T23:44:29.543Z,13.10
2019-05-18T23:46:58.442Z,12.90
2019-05-18T23:49:27.385Z,12.80
2019-05-18T23:51:56.093Z,12.60
2019-05-18T23:54:24.773Z,12.30
2019-05-18T23:56:56.275Z,12.20
2019-05-18T23:59:28.085Z,12.20
